Reedsville, Ohio
Current Conditions -  °F | °C
As of 4:53 PM on Monday 24 Nov 2014 (Local Time) from KPKB Reporting Station
Few Clouds Few Clouds  
Wind Chill: 61°   Ceiling: Unl
Heat Index: 61°   Visibility: 10mi
Dew Point: 40°   Wind: 12mph
Humidity: 46%   Direction: 270°W
Pressure: 29.67"   Gusts: 26mph
Location:  39.12°N, 81.75°W
Report Text: KPKB 242153Z 27010G23KT 10SM FEW070 16/04 A2967 RMK AO2 PK WND 23032/2123 SLP044 T01610044
Loading
Personal Weather Stations






























Interactive Weather Map New forecast layout! Learn more

10-Day Weather Forecast

Advertisements
Track Severe Weather on mobile